sensor_id;sensor_type;location;lat;lon;timestamp;pressure;altitude;pressure_sealevel;temperature;humidity
52839;BME280;39219;53.678;9.856;2024-02-26T00:00:02;100414.94;;;0.72;93.39
52839;BME280;39219;53.678;9.856;2024-02-26T00:02:29;100408.94;;;0.64;93.28
52839;BME280;39219;53.678;9.856;2024-02-26T00:04:56;100409.09;;;0.50;93.39
52839;BME280;39219;53.678;9.856;2024-02-26T00:07:23;100401.19;;;0.53;93.37
52839;BME280;39219;53.678;9.856;2024-02-26T00:09:49;100400.25;;;0.59;93.58
52839;BME280;39219;53.678;9.856;2024-02-26T00:12:16;100408.19;;;0.51;92.95
52839;BME280;39219;53.678;9.856;2024-02-26T00:14:42;100404.97;;;0.24;92.71
52839;BME280;39219;53.678;9.856;2024-02-26T00:17:12;100411.25;;;0.08;92.74
52839;BME280;39219;53.678;9.856;2024-02-26T00:19:39;100415.63;;;0.03;92.83
52839;BME280;39219;53.678;9.856;2024-02-26T00:22:06;100413.88;;;0.05;92.99
52839;BME280;39219;53.678;9.856;2024-02-26T00:24:32;100411.31;;;-0.03;92.71
52839;BME280;39219;53.678;9.856;2024-02-26T00:26:59;100407.84;;;-0.01;92.90
52839;BME280;39219;53.678;9.856;2024-02-26T00:29:26;100415.56;;;0.10;93.36
52839;BME280;39219;53.678;9.856;2024-02-26T00:31:52;100404.31;;;0.02;92.98
52839;BME280;39219;53.678;9.856;2024-02-26T00:34:20;100415.63;;;0.03;93.20
52839;BME280;39219;53.678;9.856;2024-02-26T00:36:46;100414.84;;;-0.04;92.88
52839;BME280;39219;53.678;9.856;2024-02-26T00:39:13;100412.13;;;0.02;93.19
52839;BME280;39219;53.678;9.856;2024-02-26T00:41:40;100415.72;;;-0.07;92.84
52839;BME280;39219;53.678;9.856;2024-02-26T00:44:06;100410.53;;;-0.16;92.77
52839;BME280;39219;53.678;9.856;2024-02-26T00:46:33;100419.16;;;-0.03;93.18
52839;BME280;39219;53.678;9.856;2024-02-26T00:48:59;100424.44;;;-0.09;92.87
52839;BME280;39219;53.678;9.856;2024-02-26T00:51:28;100416.75;;;-0.29;93.06
52839;BME280;39219;53.678;9.856;2024-02-26T00:53:54;100417.69;;;-0.39;92.93
52839;BME280;39219;53.678;9.856;2024-02-26T00:56:21;100423.75;;;-0.34;93.08
52839;BME280;39219;53.678;9.856;2024-02-26T00:58:48;100422.06;;;-0.42;92.70
52839;BME280;39219;53.678;9.856;2024-02-26T01:01:14;100417.72;;;-0.42;93.14
52839;BME280;39219;53.678;9.856;2024-02-26T01:03:40;100422.88;;;-0.34;93.09
52839;BME280;39219;53.678;9.856;2024-02-26T01:06:07;100423.78;;;-0.35;93.19
52839;BME280;39219;53.678;9.856;2024-02-26T01:08:36;100418.66;;;-0.52;93.27
52839;BME280;39219;53.678;9.856;2024-02-26T01:11:03;100419.56;;;-0.56;93.21
52839;BME280;39219;53.678;9.856;2024-02-26T01:13:29;100425.63;;;-0.49;93.75
52839;BME280;39219;53.678;9.856;2024-02-26T01:15:56;100421.19;;;-0.35;93.64
52839;BME280;39219;53.678;9.856;2024-02-26T01:18:22;100421.03;;;-0.19;93.75
52839;BME280;39219;53.678;9.856;2024-02-26T01:20:49;100422.75;;;-0.15;93.72
52839;BME280;39219;53.678;9.856;2024-02-26T01:23:16;100422.63;;;0.00;93.93
52839;BME280;39219;53.678;9.856;2024-02-26T01:25:44;100427.78;;;0.10;93.70
52839;BME280;39219;53.678;9.856;2024-02-26T01:28:10;100427.84;;;0.04;93.90
52839;BME280;39219;53.678;9.856;2024-02-26T01:30:37;100428.81;;;-0.11;93.69
52839;BME280;39219;53.678;9.856;2024-02-26T01:33:03;100425.47;;;-0.31;93.57
52839;BME280;39219;53.678;9.856;2024-02-26T01:35:30;100423.81;;;-0.44;93.59
52839;BME280;39219;53.678;9.856;2024-02-26T01:37:56;100429.13;;;-0.53;93.56
52839;BME280;39219;53.678;9.856;2024-02-26T01:40:26;100436.13;;;-0.61;93.74
52839;BME280;39219;53.678;9.856;2024-02-26T01:42:54;100436.16;;;-0.63;93.75
52839;BME280;39219;53.678;9.856;2024-02-26T01:45:21;100424.75;;;-0.54;93.99
52839;BME280;39219;53.678;9.856;2024-02-26T01:47:50;100431.63;;;-0.38;94.25
52839;BME280;39219;53.678;9.856;2024-02-26T01:50:17;100429.00;;;-0.35;94.15
52839;BME280;39219;53.678;9.856;2024-02-26T01:52:44;100436.75;;;-0.22;94.13
52839;BME280;39219;53.678;9.856;2024-02-26T01:55:11;100437.59;;;-0.18;94.36
52839;BME280;39219;53.678;9.856;2024-02-26T01:57:39;100435.91;;;-0.28;94.01
52839;BME280;39219;53.678;9.856;2024-02-26T02:00:08;100428.09;;;-0.33;94.20
52839;BME280;39219;53.678;9.856;2024-02-26T02:02:35;100431.59;;;-0.32;94.07
52839;BME280;39219;53.678;9.856;2024-02-26T02:05:05;100435.13;;;-0.41;93.96
52839;BME280;39219;53.678;9.856;2024-02-26T02:07:31;100436.94;;;-0.52;93.88
52839;BME280;39219;53.678;9.856;2024-02-26T02:09:58;100436.19;;;-0.73;93.64
52839;BME280;39219;53.678;9.856;2024-02-26T02:12:25;100447.59;;;-0.91;93.61
52839;BME280;39219;53.678;9.856;2024-02-26T02:14:51;100443.22;;;-0.89;93.99
52839;BME280;39219;53.678;9.856;2024-02-26T02:17:20;100441.44;;;-0.76;94.05
52839;BME280;39219;53.678;9.856;2024-02-26T02:19:46;100439.63;;;-0.64;94.18
52839;BME280;39219;53.678;9.856;2024-02-26T02:22:14;100445.75;;;-0.71;94.13
52839;BME280;39219;53.678;9.856;2024-02-26T02:24:41;100441.44;;;-0.79;93.98
52839;BME280;39219;53.678;9.856;2024-02-26T02:27:07;100440.66;;;-0.97;93.82
52839;BME280;39219;53.678;9.856;2024-02-26T02:29:34;100445.06;;;-1.11;93.89
52839;BME280;39219;53.678;9.856;2024-02-26T02:32:01;100442.47;;;-1.15;93.68
52839;BME280;39219;53.678;9.856;2024-02-26T02:34:28;100444.19;;;-1.14;93.99
52839;BME280;39219;53.678;9.856;2024-02-26T02:36:55;100442.47;;;-1.20;93.80
52839;BME280;39219;53.678;9.856;2024-02-26T02:39:22;100443.31;;;-1.06;93.97
52839;BME280;39219;53.678;9.856;2024-02-26T02:41:49;100441.44;;;-0.79;94.19
52839;BME280;39219;53.678;9.856;2024-02-26T02:44:14;100442.28;;;-0.76;94.01
52839;BME280;39219;53.678;9.856;2024-02-26T02:46:41;100443.13;;;-0.68;94.26
52839;BME280;39219;53.678;9.856;2024-02-26T02:49:08;100450.03;;;-0.59;94.34
52839;BME280;39219;53.678;9.856;2024-02-26T02:51:35;100457.06;;;-0.72;94.24
52839;BME280;39219;53.678;9.856;2024-02-26T02:54:02;100459.75;;;-0.88;94.38
52839;BME280;39219;53.678;9.856;2024-02-26T02:56:30;100463.28;;;-0.99;94.25
52839;BME280;39219;53.678;9.856;2024-02-26T02:58:56;100454.59;;;-1.02;94.24
52839;BME280;39219;53.678;9.856;2024-02-26T03:01:23;100455.53;;;-1.15;94.00
52839;BME280;39219;53.678;9.856;2024-02-26T03:03:49;100449.44;;;-1.20;94.19
52839;BME280;39219;53.678;9.856;2024-02-26T03:06:16;100458.97;;;-1.06;94.55
52839;BME280;39219;53.678;9.856;2024-02-26T03:08:42;100451.09;;;-0.95;94.60
52839;BME280;39219;53.678;9.856;2024-02-26T03:11:13;100454.53;;;-0.87;94.72
52839;BME280;39219;53.678;9.856;2024-02-26T03:13:41;100451.81;;;-0.67;94.83
52839;BME280;39219;53.678;9.856;2024-02-26T03:16:08;100452.69;;;-0.65;94.79
52839;BME280;39219;53.678;9.856;2024-02-26T03:18:34;100457.94;;;-0.76;94.73
52839;BME280;39219;53.678;9.856;2024-02-26T03:21:01;100461.53;;;-0.95;94.43
52839;BME280;39219;53.678;9.856;2024-02-26T03:23:27;100458.94;;;-1.07;94.44
52839;BME280;39219;53.678;9.856;2024-02-26T03:25:55;100465.09;;;-1.20;94.31
52839;BME280;39219;53.678;9.856;2024-02-26T03:28:21;100463.38;;;-1.32;94.29
52839;BME280;39219;53.678;9.856;2024-02-26T03:30:49;100458.13;;;-1.23;94.53
52839;BME280;39219;53.678;9.856;2024-02-26T03:33:15;100461.47;;;-0.83;94.71
52839;BME280;39219;53.678;9.856;2024-02-26T03:35:42;100461.34;;;-0.56;94.96
52839;BME280;39219;53.678;9.856;2024-02-26T03:38:08;100469.09;;;-0.42;95.03
52839;BME280;39219;53.678;9.856;2024-02-26T03:40:34;100467.28;;;-0.31;95.05
52839;BME280;39219;53.678;9.856;2024-02-26T03:43:01;100475.13;;;-0.33;94.77
52839;BME280;39219;53.678;9.856;2024-02-26T03:45:28;100478.66;;;-0.40;94.92
52839;BME280;39219;53.678;9.856;2024-02-26T03:47:55;100479.56;;;-0.44;95.06
52839;BME280;39219;53.678;9.856;2024-02-26T03:50:22;100484.75;;;-0.38;95.09
52839;BME280;39219;53.678;9.856;2024-02-26T03:52:48;100487.34;;;-0.32;95.14
52839;BME280;39219;53.678;9.856;2024-02-26T03:55:15;100484.69;;;-0.29;95.17
52839;BME280;39219;53.678;9.856;2024-02-26T03:57:43;100481.25;;;-0.34;95.08
52839;BME280;39219;53.678;9.856;2024-02-26T04:00:11;100491.75;;;-0.41;95.09
52839;BME280;39219;53.678;9.856;2024-02-26T04:02:38;100498.75;;;-0.51;94.97
52839;BME280;39219;53.678;9.856;2024-02-26T04:05:09;100505.75;;;-0.53;94.88
52839;BME280;39219;53.678;9.856;2024-02-26T04:07:36;100510.19;;;-0.77;94.59
52839;BME280;39219;53.678;9.856;2024-02-26T04:10:02;100516.38;;;-1.04;94.86
52839;BME280;39219;53.678;9.856;2024-02-26T04:12:30;100512.91;;;-1.18;94.65
52839;BME280;39219;53.678;9.856;2024-02-26T04:14:57;100513.75;;;-1.07;94.98
52839;BME280;39219;53.678;9.856;2024-02-26T04:17:23;100521.56;;;-1.03;94.53
52839;BME280;39219;53.678;9.856;2024-02-26T04:19:50;100522.47;;;-1.10;94.58
52839;BME280;39219;53.678;9.856;2024-02-26T04:22:18;100529.44;;;-1.22;94.56
52839;BME280;39219;53.678;9.856;2024-02-26T04:24:44;100529.41;;;-1.04;95.14
52839;BME280;39219;53.678;9.856;2024-02-26T04:27:11;100531.09;;;-0.91;95.12
52839;BME280;39219;53.678;9.856;2024-02-26T04:29:37;100540.69;;;-0.90;95.08
52839;BME280;39219;53.678;9.856;2024-02-26T04:32:04;100547.69;;;-1.06;94.95
52839;BME280;39219;53.678;9.856;2024-02-26T04:34:31;100553.81;;;-1.32;94.81
52839;BME280;39219;53.678;9.856;2024-02-26T04:36:57;100558.16;;;-1.42;94.67
52839;BME280;39219;53.678;9.856;2024-02-26T04:39:25;100565.13;;;-1.54;94.63
52839;BME280;39219;53.678;9.856;2024-02-26T04:41:52;100573.81;;;-1.69;94.66
52839;BME280;39219;53.678;9.856;2024-02-26T04:44:18;100569.44;;;-1.65;94.86
52839;BME280;39219;53.678;9.856;2024-02-26T04:46:45;100564.25;;;-1.68;95.00
52839;BME280;39219;53.678;9.856;2024-02-26T04:49:11;100570.34;;;-1.68;95.07
52839;BME280;39219;53.678;9.856;2024-02-26T04:51:37;100572.06;;;-1.65;94.85
52839;BME280;39219;53.678;9.856;2024-02-26T04:54:04;100579.91;;;-1.70;94.96
52839;BME280;39219;53.678;9.856;2024-02-26T04:56:32;100587.72;;;-1.77;94.98
52839;BME280;39219;53.678;9.856;2024-02-26T04:58:58;100587.72;;;-1.62;95.38
52839;BME280;39219;53.678;9.856;2024-02-26T05:01:25;100586.84;;;-1.16;95.59
52839;BME280;39219;53.678;9.856;2024-02-26T05:03:51;100586.78;;;-0.88;95.47
52839;BME280;39219;53.678;9.856;2024-02-26T05:06:18;100592.03;;;-0.86;95.30
52839;BME280;39219;53.678;9.856;2024-02-26T05:08:44;100599.84;;;-0.84;95.43
52839;BME280;39219;53.678;9.856;2024-02-26T05:11:11;100609.41;;;-0.83;95.71
52839;BME280;39219;53.678;9.856;2024-02-26T05:13:39;100598.94;;;-0.77;95.60
52839;BME280;39219;53.678;9.856;2024-02-26T05:16:05;100592.88;;;-0.81;95.59
52839;BME280;39219;53.678;9.856;2024-02-26T05:18:32;100598.09;;;-0.81;95.74
52839;BME280;39219;53.678;9.856;2024-02-26T05:20:58;100603.31;;;-0.85;95.71
52839;BME280;39219;53.678;9.856;2024-02-26T05:23:26;100601.59;;;-0.88;95.84
52839;BME280;39219;53.678;9.856;2024-02-26T05:25:53;100611.16;;;-0.87;95.47
52839;BME280;39219;53.678;9.856;2024-02-26T05:28:19;100601.56;;;-0.80;95.71
52839;BME280;39219;53.678;9.856;2024-02-26T05:30:47;100605.91;;;-0.78;95.69
52839;BME280;39219;53.678;9.856;2024-02-26T05:33:14;100609.38;;;-0.68;95.73
52839;BME280;39219;53.678;9.856;2024-02-26T05:35:40;100617.22;;;-0.73;95.79
52839;BME280;39219;53.678;9.856;2024-02-26T05:38:07;100626.81;;;-0.75;95.75
52839;BME280;39219;53.678;9.856;2024-02-26T05:40:33;100635.50;;;-0.77;95.83
52839;BME280;39219;53.678;9.856;2024-02-26T05:43:00;100638.09;;;-0.71;95.89
52839;BME280;39219;53.678;9.856;2024-02-26T05:45:26;100625.91;;;-0.74;95.99
52839;BME280;39219;53.678;9.856;2024-02-26T05:47:54;100632.00;;;-0.72;95.85
52839;BME280;39219;53.678;9.856;2024-02-26T05:50:20;100629.41;;;-0.64;95.80
52839;BME280;39219;53.678;9.856;2024-02-26T05:52:47;100628.50;;;-0.60;95.77
52839;BME280;39219;53.678;9.856;2024-02-26T05:55:13;100632.84;;;-0.58;95.97
52839;BME280;39219;53.678;9.856;2024-02-26T05:57:40;100636.34;;;-0.62;95.86
52839;BME280;39219;53.678;9.856;2024-02-26T06:00:07;100637.22;;;-0.61;95.56
52839;BME280;39219;53.678;9.856;2024-02-26T06:02:34;100643.28;;;-0.52;95.98
52839;BME280;39219;53.678;9.856;2024-02-26T06:05:02;100638.91;;;-0.44;95.94
52839;BME280;39219;53.678;9.856;2024-02-26T06:07:29;100650.22;;;-0.37;96.05
52839;BME280;39219;53.678;9.856;2024-02-26T06:09:55;100647.56;;;-0.30;96.13
52839;BME280;39219;53.678;9.856;2024-02-26T06:12:22;100658.00;;;-0.27;96.11
52839;BME280;39219;53.678;9.856;2024-02-26T06:14:49;100661.53;;;-0.34;96.20
52839;BME280;39219;53.678;9.856;2024-02-26T06:17:15;100654.50;;;-0.23;96.27
52839;BME280;39219;53.678;9.856;2024-02-26T06:19:42;100658.84;;;-0.19;96.25
52839;BME280;39219;53.678;9.856;2024-02-26T06:22:09;100652.72;;;-0.15;96.40
52839;BME280;39219;53.678;9.856;2024-02-26T06:24:36;100659.69;;;-0.11;96.51
52839;BME280;39219;53.678;9.856;2024-02-26T06:27:02;100660.53;;;-0.06;96.36
52839;BME280;39219;53.678;9.856;2024-02-26T06:29:29;100670.09;;;-0.02;96.51
52839;BME280;39219;53.678;9.856;2024-02-26T06:31:55;100664.00;;;0.01;96.57
52839;BME280;39219;53.678;9.856;2024-02-26T06:34:22;100672.69;;;0.09;96.65
52839;BME280;39219;53.678;9.856;2024-02-26T06:36:48;100669.16;;;0.15;96.46
52839;BME280;39219;53.678;9.856;2024-02-26T06:39:16;100682.19;;;0.22;96.49
52839;BME280;39219;53.678;9.856;2024-02-26T06:41:43;100680.47;;;0.23;96.64
52839;BME280;39219;53.678;9.856;2024-02-26T06:44:12;100687.41;;;0.27;96.67
52839;BME280;39219;53.678;9.856;2024-02-26T06:46:39;100684.78;;;0.31;96.70
52839;BME280;39219;53.678;9.856;2024-02-26T06:49:05;100682.97;;;0.39;96.77
52839;BME280;39219;53.678;9.856;2024-02-26T06:51:32;100682.06;;;0.46;96.62
52839;BME280;39219;53.678;9.856;2024-02-26T06:53:58;100682.94;;;0.48;96.89
52839;BME280;39219;53.678;9.856;2024-02-26T06:56:26;100682.00;;;0.57;96.62
52839;BME280;39219;53.678;9.856;2024-02-26T06:58:53;100689.84;;;0.60;96.91
52839;BME280;39219;53.678;9.856;2024-02-26T07:01:20;100688.88;;;0.71;96.49
52839;BME280;39219;53.678;9.856;2024-02-26T07:03:46;100686.22;;;0.79;96.72
52839;BME280;39219;53.678;9.856;2024-02-26T07:06:12;100687.94;;;0.78;96.56
52839;BME280;39219;53.678;9.856;2024-02-26T07:08:39;100693.16;;;0.84;96.78
52839;BME280;39219;53.678;9.856;2024-02-26T07:11:07;100696.63;;;0.86;96.75
52839;BME280;39219;53.678;9.856;2024-02-26T07:13:35;100700.13;;;0.87;96.93
52839;BME280;39219;53.678;9.856;2024-02-26T07:16:02;100698.31;;;0.92;96.77
52839;BME280;39219;53.678;9.856;2024-02-26T07:18:28;100696.56;;;0.97;96.64
52839;BME280;39219;53.678;9.856;2024-02-26T07:20:55;100698.25;;;1.00;96.86
52839;BME280;39219;53.678;9.856;2024-02-26T07:23:21;100706.09;;;1.07;96.87
52839;BME280;39219;53.678;9.856;2024-02-26T07:25:49;100696.44;;;1.11;96.72
52839;BME280;39219;53.678;9.856;2024-02-26T07:28:18;100706.03;;;1.12;96.67
52839;BME280;39219;53.678;9.856;2024-02-26T07:30:46;100703.31;;;1.24;96.84
52839;BME280;39219;53.678;9.856;2024-02-26T07:33:12;100700.72;;;1.21;96.93
52839;BME280;39219;53.678;9.856;2024-02-26T07:35:39;100709.34;;;1.32;97.24
52839;BME280;39219;53.678;9.856;2024-02-26T07:38:05;100708.34;;;1.48;96.77
52839;BME280;39219;53.678;9.856;2024-02-26T07:40:32;100712.66;;;1.50;96.87
52839;BME280;39219;53.678;9.856;2024-02-26T07:42:58;100710.00;;;1.55;96.94
52839;BME280;39219;53.678;9.856;2024-02-26T07:45:25;100721.31;;;1.58;97.00
52839;BME280;39219;53.678;9.856;2024-02-26T07:47:52;100722.16;;;1.60;96.95
52839;BME280;39219;53.678;9.856;2024-02-26T07:50:19;100735.13;;;1.77;97.14
52839;BME280;39219;53.678;9.856;2024-02-26T07:52:46;100731.59;;;1.81;96.77
52839;BME280;39219;53.678;9.856;2024-02-26T07:55:12;100734.16;;;1.86;97.12
52839;BME280;39219;53.678;9.856;2024-02-26T07:57:42;100734.16;;;1.86;96.96
52839;BME280;39219;53.678;9.856;2024-02-26T08:00:09;100745.41;;;1.97;97.02
52839;BME280;39219;53.678;9.856;2024-02-26T08:02:36;100748.88;;;1.99;97.25
52839;BME280;39219;53.678;9.856;2024-02-26T08:05:04;100753.97;;;2.11;97.32
52839;BME280;39219;53.678;9.856;2024-02-26T08:07:31;100758.13;;;2.28;97.37
52839;BME280;39219;53.678;9.856;2024-02-26T08:09:57;100761.41;;;2.48;97.36
52839;BME280;39219;53.678;9.856;2024-02-26T08:12:23;100768.53;;;2.39;97.13
52839;BME280;39219;53.678;9.856;2024-02-26T08:14:51;100766.06;;;2.25;97.25
52839;BME280;39219;53.678;9.856;2024-02-26T08:17:17;100768.53;;;2.39;97.41
52839;BME280;39219;53.678;9.856;2024-02-26T08:19:43;100775.66;;;2.26;97.10
52839;BME280;39219;53.678;9.856;2024-02-26T08:22:11;100775.59;;;2.32;97.27
52839;BME280;39219;53.678;9.856;2024-02-26T08:24:41;100782.59;;;2.33;97.34
52839;BME280;39219;53.678;9.856;2024-02-26T08:27:07;100778.94;;;2.45;97.31
52839;BME280;39219;53.678;9.856;2024-02-26T08:29:34;100776.31;;;2.45;97.19
52839;BME280;39219;53.678;9.856;2024-02-26T08:32:01;100776.97;;;2.62;97.26
52839;BME280;39219;53.678;9.856;2024-02-26T08:34:27;100779.03;;;3.03;97.24
52839;BME280;39219;53.678;9.856;2024-02-26T08:36:53;100779.13;;;2.95;97.37
52839;BME280;39219;53.678;9.856;2024-02-26T08:39:21;100776.59;;;2.89;97.46
52839;BME280;39219;53.678;9.856;2024-02-26T08:41:48;100783.63;;;2.87;97.36
52839;BME280;39219;53.678;9.856;2024-02-26T08:44:15;100781.97;;;2.82;97.15
52839;BME280;39219;53.678;9.856;2024-02-26T08:46:41;100790.47;;;3.00;97.33
52839;BME280;39219;53.678;9.856;2024-02-26T08:49:08;100781.75;;;2.98;97.23
52839;BME280;39219;53.678;9.856;2024-02-26T08:51:34;100785.25;;;2.97;97.13
52839;BME280;39219;53.678;9.856;2024-02-26T08:54:00;100779.72;;;3.15;97.32
52839;BME280;39219;53.678;9.856;2024-02-26T08:56:28;100784.78;;;3.29;97.23
52839;BME280;39219;53.678;9.856;2024-02-26T08:58:55;100791.66;;;3.37;97.06
52839;BME280;39219;53.678;9.856;2024-02-26T09:01:22;100782.94;;;3.34;97.30
52839;BME280;39219;53.678;9.856;2024-02-26T09:03:49;100789.84;;;3.39;97.26
52839;BME280;39219;53.678;9.856;2024-02-26T09:06:16;100784.34;;;3.54;97.24
52839;BME280;39219;53.678;9.856;2024-02-26T09:08:42;100782.38;;;3.69;97.24
52839;BME280;39219;53.678;9.856;2024-02-26T09:11:09;100782.47;;;3.61;97.22
52839;BME280;39219;53.678;9.856;2024-02-26T09:13:37;100789.41;;;3.65;97.10
52839;BME280;39219;53.678;9.856;2024-02-26T09:16:05;100788.31;;;3.80;97.35
52839;BME280;39219;53.678;9.856;2024-02-26T09:18:31;100791.63;;;3.89;97.38
52839;BME280;39219;53.678;9.856;2024-02-26T09:20:58;100799.03;;;4.16;97.27
52839;BME280;39219;53.678;9.856;2024-02-26T09:23:24;100805.06;;;4.23;97.30
52839;BME280;39219;53.678;9.856;2024-02-26T09:25:51;100809.66;;;4.56;97.21
52839;BME280;39219;53.678;9.856;2024-02-26T09:28:17;100804.16;;;4.67;97.54
52839;BME280;39219;53.678;9.856;2024-02-26T09:30:45;100807.34;;;4.82;97.64
52839;BME280;39219;53.678;9.856;2024-02-26T09:33:13;100798.81;;;5.09;97.51
52839;BME280;39219;53.678;9.856;2024-02-26T09:35:39;100812.66;;;5.20;97.49
52839;BME280;39219;53.678;9.856;2024-02-26T09:38:06;100807.63;;;5.47;97.58
52839;BME280;39219;53.678;9.856;2024-02-26T09:40:32;100808.91;;;5.30;97.27
52839;BME280;39219;53.678;9.856;2024-02-26T09:43:00;100820.56;;;5.19;96.97
52839;BME280;39219;53.678;9.856;2024-02-26T09:45:28;100823.53;;;5.05;97.05
52839;BME280;39219;53.678;9.856;2024-02-26T09:47:56;100829.63;;;5.07;96.71
52839;BME280;39219;53.678;9.856;2024-02-26T09:50:24;100822.22;;;5.24;97.32
52839;BME280;39219;53.678;9.856;2024-02-26T09:52:51;100826.56;;;5.27;96.83
52839;BME280;39219;53.678;9.856;2024-02-26T09:55:18;100831.47;;;5.04;96.36
52839;BME280;39219;53.678;9.856;2024-02-26T09:57:45;100840.13;;;5.10;96.11
52839;BME280;39219;53.678;9.856;2024-02-26T10:00:15;100829.84;;;4.98;95.94
52839;BME280;39219;53.678;9.856;2024-02-26T10:02:43;100835.25;;;4.92;95.53
52839;BME280;39219;53.678;9.856;2024-02-26T10:05:14;100833.34;;;4.99;95.22
52839;BME280;39219;53.678;9.856;2024-02-26T10:07:43;100838.66;;;4.96;94.67
52839;BME280;39219;53.678;9.856;2024-02-26T10:10:10;100842.66;;;5.15;94.98
52839;BME280;39219;53.678;9.856;2024-02-26T10:12:36;100845.78;;;5.32;94.61
52839;BME280;39219;53.678;9.856;2024-02-26T10:15:03;100842.84;;;5.46;94.49
52839;BME280;39219;53.678;9.856;2024-02-26T10:17:31;100834.03;;;5.45;93.81
52839;BME280;39219;53.678;9.856;2024-02-26T10:20:14;100841.09;;;5.44;93.43
52839;BME280;39219;53.678;9.856;2024-02-26T10:22:42;100847.50;;;5.33;92.94
52839;BME280;39219;53.678;9.856;2024-02-26T10:25:09;100850.72;;;5.47;92.75
52839;BME280;39219;53.678;9.856;2024-02-26T10:27:35;100852.22;;;5.57;92.29
52839;BME280;39219;53.678;9.856;2024-02-26T10:30:03;100855.91;;;5.50;92.00
52839;BME280;39219;53.678;9.856;2024-02-26T10:32:30;100852.38;;;5.51;91.85
52839;BME280;39219;53.678;9.856;2024-02-26T10:34:57;100852.03;;;5.65;91.64
52839;BME280;39219;53.678;9.856;2024-02-26T10:37:24;100858.22;;;5.64;91.23
52839;BME280;39219;53.678;9.856;2024-02-26T10:39:51;100863.53;;;5.62;90.78
52839;BME280;39219;53.678;9.856;2024-02-26T10:42:18;100867.16;;;5.58;90.30
52839;BME280;39219;53.678;9.856;2024-02-26T10:44:45;100868.72;;;5.67;90.31
52839;BME280;39219;53.678;9.856;2024-02-26T10:47:14;100865.00;;;5.75;90.10
52839;BME280;39219;53.678;9.856;2024-02-26T10:49:45;100854.97;;;5.89;89.48
52839;BME280;39219;53.678;9.856;2024-02-26T10:52:12;100863.19;;;6.12;90.07
52839;BME280;39219;53.678;9.856;2024-02-26T10:54:41;100861.50;;;6.10;88.39
52839;BME280;39219;53.678;9.856;2024-02-26T10:57:10;100870.16;;;6.15;88.74
52839;BME280;39219;53.678;9.856;2024-02-26T10:59:38;100858.47;;;6.25;88.23
52839;BME280;39219;53.678;9.856;2024-02-26T11:02:07;100864.69;;;6.22;87.29
52839;BME280;39219;53.678;9.856;2024-02-26T11:04:35;100859.97;;;6.35;86.92
52839;BME280;39219;53.678;9.856;2024-02-26T11:07:02;100863.84;;;6.54;86.55
52839;BME280;39219;53.678;9.856;2024-02-26T11:09:30;100862.41;;;6.73;85.51
52839;BME280;39219;53.678;9.856;2024-02-26T11:11:59;100866.94;;;6.70;84.93
52839;BME280;39219;53.678;9.856;2024-02-26T11:14:26;100861.13;;;6.88;85.00
52839;BME280;39219;53.678;9.856;2024-02-26T11:16:54;100868.09;;;6.60;83.34
52839;BME280;39219;53.678;9.856;2024-02-26T11:19:22;100867.19;;;6.91;84.76
52839;BME280;39219;53.678;9.856;2024-02-26T11:21:50;100869.19;;;7.12;84.13
52839;BME280;39219;53.678;9.856;2024-02-26T11:24:17;100875.91;;;7.24;83.14
52839;BME280;39219;53.678;9.856;2024-02-26T11:26:46;100867.44;;;7.13;81.94
52839;BME280;39219;53.678;9.856;2024-02-26T11:29:19;100874.66;;;7.08;82.15
52839;BME280;39219;53.678;9.856;2024-02-26T11:31:47;100866.06;;;7.00;81.78
52839;BME280;39219;53.678;9.856;2024-02-26T11:34:14;100873.31;;;7.22;82.51
52839;BME280;39219;53.678;9.856;2024-02-26T11:36:41;100866.84;;;7.33;81.44
52839;BME280;39219;53.678;9.856;2024-02-26T11:39:07;100864.13;;;7.34;81.30
52839;BME280;39219;53.678;9.856;2024-02-26T11:41:36;100866.47;;;7.15;80.08
52839;BME280;39219;53.678;9.856;2024-02-26T11:44:02;100866.78;;;7.05;80.96
52839;BME280;39219;53.678;9.856;2024-02-26T11:46:38;100872.78;;;7.11;80.23
52839;BME280;39219;53.678;9.856;2024-02-26T11:49:29;100879.03;;;6.78;80.36
52839;BME280;39219;53.678;9.856;2024-02-26T11:51:57;100884.78;;;6.92;80.97
52839;BME280;39219;53.678;9.856;2024-02-26T11:54:44;100891.06;;;7.19;80.54
52839;BME280;39219;53.678;9.856;2024-02-26T11:57:23;100886.06;;;7.08;79.95
52839;BME280;39219;53.678;9.856;2024-02-26T11:59:50;100893.91;;;6.82;79.62
52839;BME280;39219;53.678;9.856;2024-02-26T12:02:46;100890.59;;;6.74;80.42
52839;BME280;39219;53.678;9.856;2024-02-26T12:05:15;100897.88;;;6.66;80.26
52839;BME280;39219;53.678;9.856;2024-02-26T12:07:44;100905.25;;;6.54;80.82
52839;BME280;39219;53.678;9.856;2024-02-26T12:10:23;100899.69;;;6.30;80.60
52839;BME280;39219;53.678;9.856;2024-02-26T12:12:58;100905.44;;;6.12;80.78
52839;BME280;39219;53.678;9.856;2024-02-26T12:15:30;100906.41;;;6.10;81.54
52839;BME280;39219;53.678;9.856;2024-02-26T12:18:01;100912.75;;;6.01;81.19
52839;BME280;39219;53.678;9.856;2024-02-26T12:20:27;100915.63;;;5.92;81.58
52839;BME280;39219;53.678;9.856;2024-02-26T12:22:54;100921.72;;;5.96;81.69
52839;BME280;39219;53.678;9.856;2024-02-26T12:25:24;100927.66;;;6.04;81.78
52839;BME280;39219;53.678;9.856;2024-02-26T12:27:51;100915.75;;;6.23;82.15
52839;BME280;39219;53.678;9.856;2024-02-26T12:30:18;100921.47;;;6.05;81.66
52839;BME280;39219;53.678;9.856;2024-02-26T12:32:44;100926.91;;;5.99;81.57
52839;BME280;39219;53.678;9.856;2024-02-26T12:35:12;100936.84;;;5.88;81.79
52839;BME280;39219;53.678;9.856;2024-02-26T12:37:39;100947.00;;;5.66;81.85
52839;BME280;39219;53.678;9.856;2024-02-26T12:40:07;100946.97;;;5.68;82.49
52839;BME280;39219;53.678;9.856;2024-02-26T12:42:34;100953.06;;;5.70;82.33
52839;BME280;39219;53.678;9.856;2024-02-26T12:45:05;100950.25;;;5.79;82.29
52839;BME280;39219;53.678;9.856;2024-02-26T12:47:35;100950.16;;;5.82;82.56
52839;BME280;39219;53.678;9.856;2024-02-26T12:50:02;100952.59;;;5.92;82.42
52839;BME280;39219;53.678;9.856;2024-02-26T12:52:31;100959.09;;;5.76;82.42
52839;BME280;39219;53.678;9.856;2024-02-26T12:54:58;100956.41;;;5.78;82.54